createdAt,value
2023-03-11T00:00:07.493Z,97794.62
2023-03-11T00:00:54.389Z,97793.78
2023-03-11T00:01:41.572Z,97793.53
2023-03-11T00:02:28.635Z,97792.50
2023-03-11T00:03:17.857Z,97786.03
2023-03-11T00:04:05.019Z,97785.13
2023-03-11T00:04:52.269Z,97790.06
2023-03-11T00:05:41.950Z,97790.72
2023-03-11T00:06:29.094Z,97782.31
2023-03-11T00:07:16.187Z,97784.06
2023-03-11T00:08:04.450Z,97790.87
2023-03-11T00:08:52.550Z,97791.44
2023-03-11T00:09:39.743Z,97785.94
2023-03-11T00:10:30.578Z,97789.94
2023-03-11T00:11:17.589Z,97792.75
2023-03-11T00:12:05.070Z,97801.06
2023-03-11T00:12:52.370Z,97798.63
2023-03-11T00:13:41.216Z,97804.94
2023-03-11T00:14:28.282Z,97799.31
2023-03-11T00:15:15.322Z,97796.03
2023-03-11T00:16:02.803Z,97800.03
2023-03-11T00:16:49.874Z,97789.94
2023-03-11T00:17:36.858Z,97797.69
2023-03-11T00:18:28.286Z,97806.59
2023-03-11T00:19:15.269Z,97797.22
2023-03-11T00:20:05.459Z,97792.03
2023-03-11T00:20:55.518Z,97800.13
2023-03-11T00:21:43.055Z,97797.69
2023-03-11T00:22:30.125Z,97805.06
2023-03-11T00:23:17.492Z,97801.44
2023-03-11T00:24:04.650Z,97787.25
2023-03-11T00:24:51.639Z,97796.28
2023-03-11T00:25:39.557Z,97797.44
2023-03-11T00:26:26.578Z,97791.94
2023-03-11T00:27:14.169Z,97811.03
2023-03-11T00:28:01.514Z,97796.50
2023-03-11T00:28:49.690Z,97799.91
2023-03-11T00:29:36.728Z,97796.84
2023-03-11T00:30:24.512Z,97806.59
2023-03-11T00:31:13.542Z,97799.22
2023-03-11T00:32:00.570Z,97795.06
2023-03-11T00:32:48.904Z,97804.47
2023-03-11T00:33:39.628Z,97793.78
2023-03-11T00:34:26.458Z,97806.84
2023-03-11T00:35:14.695Z,97802.03
2023-03-11T00:36:01.700Z,97793.56
2023-03-11T00:36:48.779Z,97801.53
2023-03-11T00:37:36.240Z,97801.78
2023-03-11T00:38:23.329Z,97804.09
2023-03-11T00:39:11.436Z,97802.81
2023-03-11T00:39:58.478Z,97803.41
2023-03-11T00:40:46.887Z,97799.41
2023-03-11T00:41:35.195Z,97807.66
2023-03-11T00:42:22.350Z,97799.31
2023-03-11T00:43:09.443Z,97801.66
2023-03-11T00:43:56.451Z,97798.47
2023-03-11T00:44:43.477Z,97799.88
2023-03-11T00:45:30.537Z,97799.31
2023-03-11T00:46:17.646Z,97807.28
2023-03-11T00:47:04.868Z,97806.25
2023-03-11T00:47:52.664Z,97803.88
2023-03-11T00:48:39.629Z,97806.47
2023-03-11T00:49:26.597Z,97800.84
2023-03-11T00:50:19.737Z,97798.94
2023-03-11T00:51:14.794Z,97797.78
2023-03-11T00:52:01.767Z,97799.31
2023-03-11T00:52:49.766Z,97804.72
2023-03-11T00:53:36.738Z,97796.97
2023-03-11T00:54:23.647Z,97808.81
2023-03-11T00:55:11.808Z,97800.38
2023-03-11T00:55:59.006Z,97803.44
2023-03-11T00:56:46.282Z,97800.47
2023-03-11T00:57:33.328Z,97801.91
2023-03-11T00:58:20.865Z,97795.44
2023-03-11T00:59:07.898Z,97797.91
2023-03-11T00:59:55.208Z,97803.41
2023-03-11T01:00:42.498Z,97792.28
2023-03-11T01:01:29.591Z,97798.97
2023-03-11T01:02:16.751Z,97790.87
2023-03-11T01:03:03.819Z,97798.25
2023-03-11T01:03:50.827Z,97806.94
2023-03-11T01:04:38.248Z,97794.84
2023-03-11T01:05:28.141Z,97801.53
2023-03-11T01:06:15.268Z,97808.56
2023-03-11T01:07:02.395Z,97805.06
2023-03-11T01:07:49.921Z,97797.78
2023-03-11T01:08:37.427Z,97807.44
2023-03-11T01:09:24.488Z,97792.28
2023-03-11T01:10:12.200Z,97800.97
2023-03-11T01:10:59.828Z,97802.94
2023-03-11T01:11:46.896Z,97803.66
2023-03-11T01:12:34.345Z,97806.00
2023-03-11T01:13:21.573Z,97803.78
2023-03-11T01:14:08.518Z,97807.53
2023-03-11T01:14:55.946Z,97805.87
2023-03-11T01:15:43.029Z,97795.91
2023-03-11T01:16:30.096Z,97795.69
2023-03-11T01:17:17.193Z,97792.75
2023-03-11T01:18:05.576Z,97798.37
2023-03-11T01:18:52.539Z,97800.00
2023-03-11T01:19:39.525Z,97802.38
2023-03-11T01:20:26.801Z,97796.97
2023-03-11T01:21:13.788Z,97800.13
2023-03-11T01:22:00.705Z,97800.38
2023-03-11T01:22:48.176Z,97795.81
2023-03-11T01:23:35.207Z,97795.44
2023-03-11T01:24:22.259Z,97790.03
2023-03-11T01:25:12.283Z,97795.00
2023-03-11T01:25:59.700Z,97797.91
2023-03-11T01:26:46.697Z,97796.50
2023-03-11T01:27:33.638Z,97797.91
2023-03-11T01:28:20.668Z,97793.34
2023-03-11T01:29:07.706Z,97790.75
2023-03-11T01:29:54.719Z,97791.91
2023-03-11T01:30:42.995Z,97786.88
2023-03-11T01:31:30.046Z,97786.50
2023-03-11T01:32:17.183Z,97790.72
2023-03-11T01:33:05.250Z,97790.37
2023-03-11T01:33:52.196Z,97793.22
2023-03-11T01:34:39.194Z,97796.03
2023-03-11T01:35:27.925Z,97794.38
2023-03-11T01:36:15.012Z,97788.03
2023-03-11T01:37:03.699Z,97788.28
2023-03-11T01:37:50.844Z,97790.66
2023-03-11T01:38:37.997Z,97791.47
2023-03-11T01:39:25.035Z,97792.75
2023-03-11T01:40:22.675Z,97788.41
2023-03-11T01:41:11.555Z,97785.00
2023-03-11T01:41:58.491Z,97789.00
2023-03-11T01:42:45.401Z,97791.00
2023-03-11T01:43:54.859Z,97787.44
2023-03-11T01:44:41.906Z,97797.69
2023-03-11T01:45:43.055Z,97788.41
2023-03-11T01:46:54.926Z,97788.63
2023-03-11T01:47:41.994Z,97787.44
2023-03-11T01:48:29.723Z,97794.88
2023-03-11T01:49:16.655Z,97796.81
2023-03-11T01:50:07.436Z,97792.28
2023-03-11T01:50:54.701Z,97805.84
2023-03-11T01:51:43.987Z,97805.03
2023-03-11T01:52:30.978Z,97803.03
2023-03-11T01:53:18.324Z,97806.31
2023-03-11T01:54:08.299Z,97801.62
2023-03-11T01:54:55.222Z,97813.94
2023-03-11T01:55:43.261Z,97823.22
2023-03-11T01:56:30.768Z,97817.00
2023-03-11T01:57:17.910Z,97821.00
2023-03-11T01:58:07.592Z,97812.91
2023-03-11T01:58:55.118Z,97814.63
2023-03-11T01:59:52.726Z,97818.50
2023-03-11T02:00:39.846Z,97827.69
2023-03-11T02:01:27.030Z,97829.53
2023-03-11T02:02:33.357Z,97823.31
2023-03-11T02:03:39.232Z,97843.37
2023-03-11T02:04:28.433Z,97846.56
2023-03-11T02:05:15.425Z,97844.69
2023-03-11T02:06:06.230Z,97834.03
2023-03-11T02:06:54.193Z,97841.75
2023-03-11T02:07:41.503Z,97847.53
2023-03-11T02:08:30.294Z,97830.53
2023-03-11T02:09:17.292Z,97845.41
2023-03-11T02:10:04.993Z,97841.31
2023-03-11T02:10:53.663Z,97861.81
2023-03-11T02:11:40.524Z,97852.09
2023-03-11T02:12:30.146Z,97847.53
2023-03-11T02:13:17.470Z,97874.50
2023-03-11T02:14:06.706Z,97860.53
2023-03-11T02:14:54.902Z,97856.16
2023-03-11T02:15:41.957Z,97868.25
2023-03-11T02:16:29.034Z,97871.16
2023-03-11T02:17:16.446Z,97877.16
2023-03-11T02:18:06.872Z,97872.00
2023-03-11T02:18:54.085Z,97882.06
2023-03-11T02:20:01.848Z,97882.63
2023-03-11T02:21:24.248Z,97882.63
2023-03-11T02:22:12.247Z,97885.75
2023-03-11T02:23:01.358Z,97882.34
2023-03-11T02:23:51.010Z,97908.34
2023-03-11T02:24:54.532Z,97875.84
2023-03-11T02:25:44.400Z,97881.63
2023-03-11T02:26:41.216Z,97885.44
2023-03-11T02:27:28.982Z,97876.19
2023-03-11T02:28:17.040Z,97879.69
2023-03-11T02:29:05.539Z,97896.66
2023-03-11T02:29:54.318Z,97884.47
2023-03-11T02:30:43.142Z,97883.75
2023-03-11T02:31:30.390Z,97886.88
2023-03-11T02:32:19.015Z,97893.81
2023-03-11T02:33:06.159Z,97892.28
2023-03-11T02:33:53.839Z,97886.88
2023-03-11T02:34:40.759Z,97871.56
2023-03-11T02:35:28.005Z,97872.00
2023-03-11T02:36:38.381Z,97884.53
2023-03-11T02:37:25.322Z,97870.59
2023-03-11T02:38:12.398Z,97874.47
2023-03-11T02:38:59.474Z,97880.38
2023-03-11T02:39:49.132Z,97872.81
2023-03-11T02:40:41.433Z,97876.13
2023-03-11T02:41:29.250Z,97874.03
2023-03-11T02:42:20.064Z,97869.97
2023-03-11T02:43:10.146Z,97878.50
2023-03-11T02:43:57.396Z,97865.50
2023-03-11T02:44:47.142Z,97854.66
2023-03-11T02:45:34.586Z,97878.88
2023-03-11T02:46:21.728Z,97865.25
2023-03-11T02:47:08.859Z,97879.19
2023-03-11T02:47:57.255Z,97867.13
2023-03-11T02:48:44.263Z,97872.75
2023-03-11T02:49:31.689Z,97872.53
2023-03-11T02:50:19.273Z,97871.31
2023-03-11T02:51:06.344Z,97869.44
2023-03-11T02:51:53.209Z,97885.25
2023-03-11T02:52:40.066Z,97870.72
2023-03-11T02:53:29.224Z,97875.72
2023-03-11T02:54:17.677Z,97888.63
2023-03-11T02:55:05.326Z,97881.72
2023-03-11T02:55:52.218Z,97854.78
2023-03-11T02:56:39.165Z,97866.84
2023-03-11T02:57:26.079Z,97864.38
2023-03-11T02:58:12.957Z,97887.78
2023-03-11T02:58:59.927Z,97864.38
2023-03-11T02:59:46.799Z,97843.06
2023-03-11T03:00:34.733Z,97866.69
2023-03-11T03:01:21.983Z,97856.75
2023-03-11T03:02:08.901Z,97852.78
2023-03-11T03:02:55.844Z,97835.19
2023-03-11T03:03:42.724Z,97847.47
2023-03-11T03:04:29.656Z,97860.09
2023-03-11T03:05:16.544Z,97840.06
2023-03-11T03:06:03.450Z,97843.44
2023-03-11T03:06:50.409Z,97843.34
2023-03-11T03:07:37.419Z,97849.56
2023-03-11T03:08:24.315Z,97847.25
2023-03-11T03:09:11.164Z,97866.91
2023-03-11T03:09:58.125Z,97849.78
2023-03-11T03:10:45.074Z,97853.13
2023-03-11T03:11:32.197Z,97837.00
2023-03-11T03:12:19.125Z,97851.94
2023-03-11T03:13:05.966Z,97846.50
2023-03-11T03:13:52.864Z,97857.94
2023-03-11T03:14:39.706Z,97855.84
2023-03-11T03:15:26.581Z,97852.53
2023-03-11T03:16:13.480Z,97860.63
2023-03-11T03:17:00.564Z,97862.09
2023-03-11T03:17:47.881Z,97864.59
2023-03-11T03:18:34.792Z,97863.38
2023-03-11T03:19:21.631Z,97861.28
2023-03-11T03:20:12.188Z,97864.88
2023-03-11T03:20:59.034Z,97851.81
2023-03-11T03:21:46.195Z,97862.94
2023-03-11T03:22:33.027Z,97866.31
2023-03-11T03:23:20.367Z,97854.09
2023-03-11T03:24:07.542Z,97867.81
2023-03-11T03:24:54.346Z,97865.31
2023-03-11T03:25:45.404Z,97855.44
2023-03-11T03:26:32.201Z,97853.50
2023-03-11T03:27:19.386Z,97846.50
2023-03-11T03:28:06.240Z,97867.19
2023-03-11T03:28:53.196Z,97866.59
2023-03-11T03:29:40.079Z,97877.38
2023-03-11T03:30:28.598Z,97869.38
2023-03-11T03:31:15.426Z,97872.88
2023-03-11T03:32:02.374Z,97873.47
2023-03-11T03:32:49.341Z,97866.81
2023-03-11T03:33:36.536Z,97877.56
2023-03-11T03:34:23.415Z,97873.69
2023-03-11T03:35:11.203Z,97893.59
2023-03-11T03:35:58.093Z,97887.88
2023-03-11T03:36:44.930Z,97896.22
2023-03-11T03:37:34.812Z,97892.47
2023-03-11T03:38:21.649Z,97894.00
2023-03-11T03:39:08.554Z,97888.47
2023-03-11T03:39:55.633Z,97892.44
2023-03-11T03:40:47.813Z,97904.66
2023-03-11T03:41:34.685Z,97919.38
2023-03-11T03:42:21.974Z,97907.00
2023-03-11T03:43:08.841Z,97896.69
2023-03-11T03:43:55.706Z,97903.31
2023-03-11T03:44:42.665Z,97896.31
2023-03-11T03:45:29.854Z,97931.25
2023-03-11T03:46:17.139Z,97912.63
2023-03-11T03:47:04.136Z,97919.28
2023-03-11T03:47:50.955Z,97893.47
2023-03-11T03:48:38.748Z,97902.59
2023-03-11T03:49:25.637Z,97917.28
2023-03-11T03:50:13.494Z,97903.91
2023-03-11T03:51:05.172Z,97907.16
2023-03-11T03:51:52.099Z,97899.53
2023-03-11T03:52:39.056Z,97916.12
2023-03-11T03:53:25.869Z,97907.81
2023-03-11T03:54:12.697Z,97909.69
2023-03-11T03:54:59.509Z,97913.19
2023-03-11T03:55:46.387Z,97916.72
2023-03-11T03:56:33.248Z,97936.81
2023-03-11T03:57:20.132Z,97915.53
2023-03-11T03:58:06.941Z,97923.59
2023-03-11T03:58:54.457Z,97911.41
2023-03-11T03:59:41.309Z,97914.72
2023-03-11T04:00:28.126Z,97918.47
2023-03-11T04:01:15.082Z,97933.75
2023-03-11T04:02:02.168Z,97930.84
2023-03-11T04:02:49.089Z,97905.41
2023-03-11T04:03:36.228Z,97918.88
2023-03-11T04:04:23.081Z,97915.81
2023-03-11T04:05:10.570Z,97925.75
2023-03-11T04:06:09.125Z,97918.94
2023-03-11T04:06:55.970Z,97935.25
2023-03-11T04:07:42.850Z,97932.16
2023-03-11T04:08:29.654Z,97940.03
2023-03-11T04:09:16.510Z,97926.22
2023-03-11T04:10:04.471Z,97922.69
2023-03-11T04:10:57.937Z,97946.66
2023-03-11T04:11:44.845Z,97941.31
2023-03-11T04:12:31.721Z,97954.72
2023-03-11T04:13:18.601Z,97957.00
2023-03-11T04:14:06.254Z,97971.06
2023-03-11T04:14:53.243Z,97954.97
2023-03-11T04:15:42.453Z,97952.72
2023-03-11T04:16:29.394Z,97958.09
2023-03-11T04:17:17.980Z,97965.09
2023-03-11T04:18:04.990Z,97966.34
2023-03-11T04:18:51.891Z,97959.53
2023-03-11T04:19:39.212Z,97972.53
2023-03-11T04:20:26.232Z,97962.84
2023-03-11T04:21:13.061Z,97982.25
2023-03-11T04:21:59.983Z,97964.28
2023-03-11T04:22:46.825Z,97971.09
2023-03-11T04:23:34.396Z,97978.09
2023-03-11T04:24:21.380Z,97965.94
2023-03-11T04:25:08.661Z,97978.12
2023-03-11T04:25:55.541Z,97949.44
2023-03-11T04:26:42.389Z,97964.09
2023-03-11T04:27:29.248Z,97961.62
2023-03-11T04:28:16.154Z,97971.75
2023-03-11T04:29:03.420Z,97980.63
2023-03-11T04:29:50.579Z,97967.41
2023-03-11T04:30:37.540Z,97965.78
2023-03-11T04:31:24.557Z,97971.94
2023-03-11T04:32:11.547Z,97981.03
2023-03-11T04:32:58.427Z,97977.34
2023-03-11T04:33:45.256Z,97985.75
2023-03-11T04:34:32.226Z,97989.31
2023-03-11T04:35:19.116Z,97984.97
2023-03-11T04:36:07.488Z,97987.03
2023-03-11T04:36:55.199Z,97974.63
2023-03-11T04:37:42.035Z,98004.53
2023-03-11T04:38:28.965Z,97994.00
2023-03-11T04:39:16.028Z,98005.56
2023-03-11T04:40:03.793Z,98002.06
2023-03-11T04:40:50.706Z,98007.66
2023-03-11T04:41:37.714Z,97993.81
2023-03-11T04:42:24.652Z,98010.53
2023-03-11T04:43:11.448Z,98003.50
2023-03-11T04:43:59.736Z,98003.09
2023-03-11T04:44:46.582Z,98003.31
2023-03-11T04:45:33.677Z,98014.44
2023-03-11T04:46:20.607Z,98001.88
2023-03-11T04:47:07.543Z,98013.22
2023-03-11T04:47:54.401Z,97988.66
2023-03-11T04:48:41.508Z,97999.16
2023-03-11T04:49:28.403Z,98012.16
2023-03-11T04:50:15.695Z,98002.88
2023-03-11T04:51:02.615Z,98014.22
2023-03-11T04:51:49.483Z,98022.47
2023-03-11T04:52:36.323Z,98029.50
2023-03-11T04:53:24.112Z,98014.41
2023-03-11T04:54:11.108Z,98038.34
2023-03-11T04:54:58.053Z,98027.44
2023-03-11T04:55:45.132Z,98021.63
2023-03-11T04:56:32.041Z,98017.72
2023-03-11T04:57:18.852Z,98003.87
2023-03-11T04:58:05.822Z,98018.53
2023-03-11T04:58:52.691Z,98026.56
2023-03-11T04:59:39.802Z,98008.00
2023-03-11T05:00:26.733Z,98019.78
2023-03-11T05:01:13.681Z,98037.09
2023-03-11T05:02:00.734Z,98028.22
2023-03-11T05:02:47.672Z,98029.66
2023-03-11T05:03:34.524Z,98045.31
2023-03-11T05:04:21.510Z,98042.00
2023-03-11T05:05:09.925Z,98050.22
2023-03-11T05:05:57.621Z,98043.00
2023-03-11T05:06:44.508Z,98034.34
2023-03-11T05:07:31.516Z,98004.47
2023-03-11T05:08:18.313Z,98022.78
2023-03-11T05:09:05.520Z,98048.59
2023-03-11T05:09:52.416Z,98034.13
2023-03-11T05:10:42.073Z,98038.06
2023-03-11T05:11:29.110Z,98043.59
2023-03-11T05:12:15.991Z,98038.41
2023-03-11T05:13:03.525Z,98058.41
2023-03-11T05:13:50.433Z,98053.22
2023-03-11T05:14:37.433Z,98047.88
2023-03-11T05:15:24.363Z,98068.25
2023-03-11T05:16:11.313Z,98065.41
2023-03-11T05:16:58.201Z,98069.50
2023-03-11T05:17:45.672Z,98058.34
2023-03-11T05:18:32.720Z,98066.19
2023-03-11T05:19:31.805Z,98062.91
2023-03-11T05:20:18.948Z,98054.44
2023-03-11T05:21:06.021Z,98046.81
2023-03-11T05:21:53.143Z,98080.37
2023-03-11T05:22:40.016Z,98070.72
2023-03-11T05:23:26.930Z,98066.41
2023-03-11T05:24:13.807Z,98070.72
2023-03-11T05:25:00.916Z,98066.59
2023-03-11T05:25:47.791Z,98088.00
2023-03-11T05:26:34.643Z,98068.03
2023-03-11T05:27:21.557Z,98077.94
2023-03-11T05:28:08.483Z,98071.34
2023-03-11T05:28:55.426Z,98070.34
2023-03-11T05:29:42.801Z,98072.75
2023-03-11T05:30:29.903Z,98075.84
2023-03-11T05:31:16.878Z,98088.47
2023-03-11T05:32:04.181Z,98069.47
2023-03-11T05:32:51.233Z,98064.31
2023-03-11T05:33:38.159Z,98069.22
2023-03-11T05:34:25.025Z,98065.50
2023-03-11T05:35:11.874Z,98076.19
2023-03-11T05:36:05.217Z,98085.09
2023-03-11T05:36:52.126Z,98078.66
2023-03-11T05:37:39.524Z,98087.50
2023-03-11T05:38:26.346Z,98075.97
2023-03-11T05:39:13.159Z,98100.22
2023-03-11T05:40:00.036Z,98127.81
2023-03-11T05:40:47.216Z,98100.22
2023-03-11T05:41:34.043Z,98098.78
2023-03-11T05:42:21.546Z,98109.63
2023-03-11T05:43:08.567Z,98099.31
2023-03-11T05:43:55.398Z,98105.94
2023-03-11T05:44:42.508Z,98115.81
2023-03-11T05:45:29.618Z,98102.00
2023-03-11T05:46:16.622Z,98116.34
2023-03-11T05:47:03.513Z,98099.84
2023-03-11T05:47:52.309Z,98126.06
2023-03-11T05:48:39.300Z,98125.59
2023-03-11T05:49:26.256Z,98142.03
2023-03-11T05:50:14.559Z,98143.22
2023-03-11T05:51:01.445Z,98133.59
2023-03-11T05:51:49.184Z,98150.22
2023-03-11T05:52:36.060Z,98152.31
2023-03-11T05:53:23.010Z,98145.06
2023-03-11T05:54:16.158Z,98152.62
2023-03-11T05:55:03.172Z,98147.91
2023-03-11T05:56:00.098Z,98146.47
2023-03-11T05:56:47.737Z,98139.66
2023-03-11T05:57:34.576Z,98147.47
2023-03-11T05:58:21.431Z,98140.66
2023-03-11T05:59:09.046Z,98159.78
2023-03-11T05:59:55.932Z,98155.66
2023-03-11T06:00:42.825Z,98147.63
2023-03-11T06:01:29.728Z,98133.16
2023-03-11T06:02:16.599Z,98148.75
2023-03-11T06:03:03.686Z,98139.72
2023-03-11T06:03:50.607Z,98135.19
2023-03-11T06:04:37.697Z,98156.16
2023-03-11T06:05:24.728Z,98153.28
2023-03-11T06:06:13.093Z,98158.28
2023-03-11T06:07:00.112Z,98169.16
2023-03-11T06:07:47.024Z,98178.56
2023-03-11T06:08:37.317Z,98174.22
2023-03-11T06:09:24.234Z,98176.91
2023-03-11T06:10:11.766Z,98183.28
2023-03-11T06:11:03.675Z,98188.81
2023-03-11T06:11:50.586Z,98183.84
2023-03-11T06:12:38.832Z,98190.03
2023-03-11T06:13:25.735Z,98192.25
2023-03-11T06:14:13.941Z,98202.50
2023-03-11T06:15:00.770Z,98208.28
2023-03-11T06:15:47.544Z,98205.91
2023-03-11T06:16:34.533Z,98209.56
2023-03-11T06:17:21.481Z,98205.25
2023-03-11T06:18:08.314Z,98197.66
2023-03-11T06:18:55.144Z,98211.19
2023-03-11T06:19:42.099Z,98208.34
2023-03-11T06:20:29.133Z,98218.06
2023-03-11T06:21:23.703Z,98202.84
2023-03-11T06:22:10.800Z,98207.81
2023-03-11T06:22:57.693Z,98207.12
2023-03-11T06:23:44.738Z,98205.44
2023-03-11T06:24:31.593Z,98207.75
2023-03-11T06:25:18.597Z,98199.75
2023-03-11T06:26:06.365Z,98218.84
2023-03-11T06:26:53.558Z,98199.97
2023-03-11T06:27:40.455Z,98195.91
2023-03-11T06:28:28.054Z,98196.38
2023-03-11T06:29:15.224Z,98196.38
2023-03-11T06:30:02.214Z,98198.44
2023-03-11T06:30:49.052Z,98197.88
2023-03-11T06:31:37.367Z,98216.72
2023-03-11T06:32:24.310Z,98199.72
2023-03-11T06:33:11.308Z,98202.19
2023-03-11T06:33:59.425Z,98227.31
2023-03-11T06:34:51.007Z,98197.47
2023-03-11T06:35:38.007Z,98202.47
2023-03-11T06:36:25.389Z,98212.13
2023-03-11T06:37:12.224Z,98213.16
2023-03-11T06:37:59.076Z,98208.81
2023-03-11T06:38:50.294Z,98217.75
2023-03-11T06:39:37.134Z,98215.84
2023-03-11T06:40:24.023Z,98236.62
2023-03-11T06:41:11.240Z,98217.53
2023-03-11T06:41:58.037Z,98221.06
2023-03-11T06:42:47.781Z,98226.03
2023-03-11T06:43:35.703Z,98227.88
2023-03-11T06:44:22.595Z,98220.66
2023-03-11T06:45:09.716Z,98239.06
2023-03-11T06:45:56.606Z,98220.91
2023-03-11T06:46:43.566Z,98216.41
2023-03-11T06:47:30.453Z,98227.53
2023-03-11T06:48:17.331Z,98229.66
2023-03-11T06:49:04.521Z,98228.56
2023-03-11T06:49:52.158Z,98225.72
2023-03-11T06:50:39.108Z,98228.00
2023-03-11T06:51:25.967Z,98239.16
2023-03-11T06:52:12.825Z,98237.53
2023-03-11T06:52:59.734Z,98236.34
2023-03-11T06:53:50.454Z,98227.72
2023-03-11T06:54:37.148Z,98228.50
2023-03-11T06:55:24.023Z,98222.31
2023-03-11T06:56:13.178Z,98233.91
2023-03-11T06:56:59.987Z,98226.25
2023-03-11T06:57:47.085Z,98236.12
2023-03-11T06:58:35.704Z,98238.81
2023-03-11T06:59:23.108Z,98234.47
2023-03-11T07:00:12.720Z,98235.31
2023-03-11T07:01:12.456Z,98227.94
2023-03-11T07:01:59.297Z,98232.94
2023-03-11T07:02:46.161Z,98232.72
2023-03-11T07:03:33.417Z,98237.88
2023-03-11T07:04:20.482Z,98248.41
2023-03-11T07:05:07.653Z,98243.69
2023-03-11T07:05:54.706Z,98253.19
2023-03-11T07:06:42.245Z,98250.69
2023-03-11T07:07:29.121Z,98249.69
2023-03-11T07:08:16.194Z,98243.91
2023-03-11T07:09:03.099Z,98260.00
2023-03-11T07:09:49.926Z,98262.34
2023-03-11T07:10:36.857Z,98251.19
2023-03-11T07:11:27.653Z,98242.50
2023-03-11T07:12:15.165Z,98249.91
2023-03-11T07:13:02.265Z,98246.22
2023-03-11T07:13:49.295Z,98250.78
2023-03-11T07:14:36.117Z,98241.53
2023-03-11T07:15:22.986Z,98250.59
2023-03-11T07:16:20.021Z,98239.87
2023-03-11T07:17:09.454Z,98259.06
2023-03-11T07:18:00.467Z,98253.72
2023-03-11T07:18:56.932Z,98245.91
2023-03-11T07:19:46.008Z,98247.16
2023-03-11T07:20:38.736Z,98257.69
2023-03-11T07:21:27.944Z,98253.59
2023-03-11T07:22:16.602Z,98254.06
2023-03-11T07:23:05.145Z,98264.38
2023-03-11T07:24:08.378Z,98282.72
2023-03-11T07:24:55.314Z,98259.62
2023-03-11T07:25:49.450Z,98248.13
2023-03-11T07:26:36.529Z,98261.34
2023-03-11T07:27:23.576Z,98257.84
2023-03-11T07:28:10.438Z,98267.41
2023-03-11T07:28:58.032Z,98264.13
2023-03-11T07:29:45.010Z,98290.62
2023-03-11T07:30:31.905Z,98256.56
2023-03-11T07:31:21.669Z,98290.44
2023-03-11T07:32:09.023Z,98253.06
2023-03-11T07:32:56.000Z,98273.78
2023-03-11T07:33:43.056Z,98269.06
2023-03-11T07:34:29.926Z,98267.41
2023-03-11T07:35:16.881Z,98269.09
2023-03-11T07:36:08.745Z,98266.41
2023-03-11T07:36:55.715Z,98276.13
2023-03-11T07:37:42.665Z,98273.03
2023-03-11T07:38:29.507Z,98290.38
2023-03-11T07:39:18.865Z,98286.66
2023-03-11T07:40:06.364Z,98283.78
2023-03-11T07:41:00.019Z,98286.09
2023-03-11T07:41:47.506Z,98277.41
2023-03-11T07:42:35.059Z,98277.00
2023-03-11T07:43:21.935Z,98284.22
2023-03-11T07:44:09.960Z,98305.72
2023-03-11T07:44:56.916Z,98276.34
2023-03-11T07:45:43.815Z,98276.34
2023-03-11T07:46:31.804Z,98285.63
2023-03-11T07:47:18.797Z,98268.91
2023-03-11T07:48:05.857Z,98267.41
2023-03-11T07:48:53.234Z,98272.16
2023-03-11T07:49:40.115Z,98284.38
2023-03-11T07:50:27.109Z,98275.09
2023-03-11T07:51:16.237Z,98268.72
2023-03-11T07:52:03.115Z,98267.69
2023-03-11T07:52:50.082Z,98268.50
2023-03-11T07:53:36.964Z,98277.16
2023-03-11T07:54:23.838Z,98281.06
2023-03-11T07:55:10.834Z,98263.13
2023-03-11T07:55:58.978Z,98288.72
2023-03-11T07:56:45.874Z,98267.88
2023-03-11T07:57:32.754Z,98279.84
2023-03-11T07:58:19.574Z,98269.09
2023-03-11T07:59:06.499Z,98271.16
2023-03-11T07:59:53.386Z,98274.91
2023-03-11T08:00:40.324Z,98262.31
2023-03-11T08:01:30.846Z,98278.63
2023-03-11T08:02:17.711Z,98261.69
2023-03-11T08:03:04.655Z,98272.03
2023-03-11T08:03:57.110Z,98272.88
2023-03-11T08:04:44.193Z,98256.31
2023-03-11T08:05:34.070Z,98278.87
2023-03-11T08:06:23.094Z,98267.50
2023-03-11T08:07:09.966Z,98280.47
2023-03-11T08:07:56.846Z,98281.72
2023-03-11T08:08:44.038Z,98276.34
2023-03-11T08:09:30.958Z,98268.50
2023-03-11T08:10:17.966Z,98281.50
2023-03-11T08:11:05.098Z,98266.22
2023-03-11T08:11:52.012Z,98291.22
2023-03-11T08:12:38.946Z,98276.16
2023-03-11T08:13:25.865Z,98278.84
2023-03-11T08:14:12.776Z,98292.28
2023-03-11T08:14:59.624Z,98280.72
2023-03-11T08:15:46.496Z,98285.25
2023-03-11T08:16:33.412Z,98270.00
2023-03-11T08:17:20.325Z,98269.59
2023-03-11T08:18:07.465Z,98278.06
2023-03-11T08:18:55.730Z,98276.81
2023-03-11T08:19:42.628Z,98281.16
2023-03-11T08:20:29.474Z,98286.97
2023-03-11T08:21:19.722Z,98274.16
2023-03-11T08:22:06.600Z,98279.31
2023-03-11T08:22:57.956Z,98292.13
2023-03-11T08:23:48.202Z,98285.72
2023-03-11T08:24:35.897Z,98303.69
2023-03-11T08:25:22.742Z,98285.94
2023-03-11T08:26:11.758Z,98302.06
2023-03-11T08:26:58.690Z,98291.50
2023-03-11T08:27:45.756Z,98283.03
2023-03-11T08:28:33.049Z,98301.22
2023-03-11T08:29:19.925Z,98293.16
2023-03-11T08:30:07.945Z,98282.41
2023-03-11T08:30:54.917Z,98296.44
2023-03-11T08:31:42.014Z,98274.31
2023-03-11T08:32:31.705Z,98297.69
2023-03-11T08:33:18.698Z,98280.13
2023-03-11T08:34:09.426Z,98294.19
2023-03-11T08:34:56.433Z,98283.00
2023-03-11T08:35:43.342Z,98289.84
2023-03-11T08:36:31.496Z,98290.25
2023-03-11T08:37:18.356Z,98293.13
2023-03-11T08:38:05.255Z,98295.41
2023-03-11T08:38:52.219Z,98295.19
2023-03-11T08:39:39.109Z,98277.00
2023-03-11T08:40:26.218Z,98290.25
2023-03-11T08:41:13.719Z,98294.56
2023-03-11T08:42:00.792Z,98289.00
2023-03-11T08:42:47.635Z,98285.31
2023-03-11T08:43:34.595Z,98284.69
2023-03-11T08:44:21.633Z,98298.12
2023-03-11T08:45:09.335Z,98296.28
2023-03-11T08:45:56.313Z,98285.53
2023-03-11T08:46:43.271Z,98302.88
2023-03-11T08:47:34.591Z,98289.03
2023-03-11T08:48:21.810Z,98297.91
2023-03-11T08:49:08.687Z,98295.84
2023-03-11T08:49:55.585Z,98290.47
2023-03-11T08:50:53.294Z,98302.25
2023-03-11T08:51:41.033Z,98286.97
2023-03-11T08:52:28.021Z,98278.28
2023-03-11T08:53:15.084Z,98308.66
2023-03-11T08:54:02.372Z,98298.34
2023-03-11T08:54:49.225Z,98299.59
2023-03-11T08:55:36.151Z,98297.91
2023-03-11T08:56:23.077Z,98311.16
2023-03-11T08:57:10.113Z,98298.12
2023-03-11T08:57:56.992Z,98312.59
2023-03-11T08:58:43.875Z,98313.22
2023-03-11T08:59:30.831Z,98316.97
2023-03-11T09:00:20.263Z,98298.34
2023-03-11T09:01:09.375Z,98315.69
2023-03-11T09:01:56.220Z,98309.69
2023-03-11T09:02:43.656Z,98316.13
2023-03-11T09:03:35.595Z,98305.75
2023-03-11T09:04:22.525Z,98315.69
2023-03-11T09:05:10.274Z,98323.75
2023-03-11T09:06:02.083Z,98331.59
2023-03-11T09:06:51.671Z,98319.59
2023-03-11T09:07:38.614Z,98317.16
2023-03-11T09:08:25.425Z,98329.56
2023-03-11T09:09:12.781Z,98317.16
2023-03-11T09:09:59.651Z,98314.47
2023-03-11T09:10:46.482Z,98321.50
2023-03-11T09:11:33.543Z,98316.75
2023-03-11T09:12:20.787Z,98316.75
2023-03-11T09:13:07.650Z,98314.69
2023-03-11T09:13:54.561Z,98320.06
2023-03-11T09:14:42.666Z,98314.25
2023-03-11T09:15:29.565Z,98304.72
2023-03-11T09:16:18.939Z,98313.19
2023-03-11T09:17:05.831Z,98315.25
2023-03-11T09:17:53.253Z,98327.25
2023-03-11T09:18:40.120Z,98318.38
2023-03-11T09:19:26.989Z,98327.88
2023-03-11T09:20:15.357Z,98332.66
2023-03-11T09:21:02.223Z,98291.66
2023-03-11T09:21:49.062Z,98326.00
2023-03-11T09:22:35.902Z,98318.34
2023-03-11T09:23:22.813Z,98306.12